Time;durP1;ratioP1;P1;durP2;ratioP2;P2;SDS_P1;SDS_P2;PMS_P1;PMS_P2;Temp;Humidity;BMP_temperature;BMP_pressure;BME280_temperature;BME280_humidity;BME280_pressure;Samples;Min_cycle;Max_cycle;Signal;HPM_P1;HPM_P2
2022/09/23 00:02:09;;;;;;;6.47;2.83;;;;;;;;;;5032253;28;20422;-66
2022/09/23 00:04:34;;;;;;;5.72;2.42;;;;;;;;;;5033384;28;20288;-66
2022/09/23 00:06:59;;;;;;;4.43;2.30;;;;;;;;;;5036109;28;20036;-66
2022/09/23 00:09:25;;;;;;;10.95;2.42;;;;;;;;;;5040105;28;20274;-68
2022/09/23 00:11:50;;;;;;;6.73;2.40;;;;;;;;;;5033989;28;20385;-68
2022/09/23 00:14:16;;;;;;;11.30;2.53;;;;;;;;;;5034032;28;20275;-68
2022/09/23 00:16:41;;;;;;;5.97;2.50;;;;;;;;;;5048969;28;20021;-68
2022/09/23 00:19:06;;;;;;;3.45;2.15;;;;;;;;;;5033096;28;20504;-68
2022/09/23 00:21:32;;;;;;;4.55;2.17;;;;;;;;;;5030389;28;20020;-68
2022/09/23 00:23:57;;;;;;;5.47;3.22;;;;;;;;;;5035228;28;20025;-68
2022/09/23 00:26:22;;;;;;;3.45;2.05;;;;;;;;;;5031718;28;20457;-68
2022/09/23 00:28:48;;;;;;;5.00;2.15;;;;;;;;;;5032521;28;20018;-67
2022/09/23 00:31:18;;;;;;;4.78;2.25;;;;;;;;;;5047376;28;20024;-68
2022/09/23 00:33:43;;;;;;;5.80;2.75;;;;;;;;;;5030931;28;20017;-68
2022/09/23 00:36:10;;;;;;;8.05;2.40;;;;;;;;;;5044938;28;20025;-68
2022/09/23 00:38:35;;;;;;;7.78;2.17;;;;;;;;;;5038214;28;20109;-68
2022/09/23 00:41:01;;;;;;;8.45;2.88;;;;;;;;;;5031818;28;20449;-68
2022/09/23 00:43:39;;;;;;;12.45;2.42;;;;;;;;;;5036683;28;20021;-68
2022/09/23 00:46:05;;;;;;;7.18;2.88;;;;;;;;;;5030781;28;20032;-68
2022/09/23 00:48:30;;;;;;;9.20;2.95;;;;;;;;;;5043490;28;20027;-68
2022/09/23 00:50:55;;;;;;;8.87;2.40;;;;;;;;;;5032758;28;20022;-68
2022/09/23 00:53:22;;;;;;;9.07;2.17;;;;;;;;;;5030871;28;20752;-68
2022/09/23 00:55:55;;;;;;;4.63;2.10;;;;;;;;;;5035919;28;20412;-67
2022/09/23 00:58:22;;;;;;;5.40;2.08;;;;;;;;;;5038820;28;20421;-68
2022/09/23 01:00:48;;;;;;;5.57;2.30;;;;;;;;;;5028874;28;20033;-68
2022/09/23 01:03:13;;;;;;;7.00;2.33;;;;;;;;;;5033382;28;20071;-68
2022/09/23 01:05:38;;;;;;;7.90;2.40;;;;;;;;;;5029218;28;20470;-68
2022/09/23 01:08:05;;;;;;;3.42;2.00;;;;;;;;;;5029484;28;20418;-68
2022/09/23 01:10:35;;;;;;;6.18;2.10;;;;;;;;;;5032011;28;20405;-68
2022/09/23 01:13:01;;;;;;;6.20;2.30;;;;;;;;;;5038364;28;20528;-68
2022/09/23 01:15:36;;;;;;;9.30;2.53;;;;;;;;;;5036095;28;20061;-68
2022/09/23 01:18:07;;;;;;;10.05;2.60;;;;;;;;;;5036667;28;20630;-68
2022/09/23 01:21:08;;;;;;;4.32;2.22;;;;;;;;;;5032378;28;20068;-68
2022/09/23 01:23:33;;;;;;;;;;;;;;;;;;4957766;28;20361;-68
2022/09/23 01:26:10;;;;;;;7.85;2.50;;;;;;;;;;5017421;28;20269;-68
2022/09/23 01:28:54;;;;;;;4.20;2.35;;;;;;;;;;5025390;28;20025;-67
2022/09/23 01:31:19;;;;;;;14.75;2.65;;;;;;;;;;5025700;28;20112;-67
2022/09/23 01:33:52;;;;;;;4.97;2.20;;;;;;;;;;5027836;28;20108;-68
2022/09/23 01:36:20;;;;;;;8.95;3.50;;;;;;;;;;5036623;28;20268;-68
2022/09/23 01:38:51;;;;;;;7.07;2.40;;;;;;;;;;5032121;28;20100;-68
2022/09/23 01:41:30;;;;;;;5.22;2.13;;;;;;;;;;5037243;28;20032;-68
2022/09/23 01:44:01;;;;;;;8.00;2.45;;;;;;;;;;5029912;28;20043;-68
2022/09/23 01:46:36;;;;;;;5.68;2.30;;;;;;;;;;5034467;28;20393;-68
2022/09/23 01:49:13;;;;;;;3.90;2.28;;;;;;;;;;5031362;28;20083;-68
2022/09/23 01:51:45;;;;;;;11.95;3.28;;;;;;;;;;5030250;28;20029;-68
2022/09/23 01:54:14;;;;;;;5.57;2.05;;;;;;;;;;5032362;28;20017;-69
2022/09/23 01:56:46;;;;;;;5.55;2.80;;;;;;;;;;5032261;28;20021;-68
2022/09/23 01:59:27;;;;;;;7.15;2.78;;;;;;;;;;5030612;28;20033;-68
2022/09/23 02:01:55;;;;;;;7.55;2.47;;;;;;;;;;5029469;28;20496;-68
2022/09/23 02:04:30;;;;;;;4.45;3.00;;;;;;;;;;5026460;28;20021;-68
2022/09/23 02:06:58;;;;;;;5.97;2.85;;;;;;;;;;5030164;28;20041;-67
2022/09/23 02:09:27;;;;;;;7.90;3.08;;;;;;;;;;5023958;28;20033;-68
2022/09/23 02:11:57;;;;;;;4.88;2.53;;;;;;;;;;5022773;28;20037;-68
2022/09/23 02:14:24;;;;;;;8.50;3.00;;;;;;;;;;5033070;28;20013;-67
2022/09/23 02:16:50;;;;;;;6.68;2.65;;;;;;;;;;5027985;28;20409;-68
2022/09/23 02:19:18;;;;;;;7.40;3.00;;;;;;;;;;5031689;28;20381;-67
2022/09/23 02:21:48;;;;;;;6.72;2.60;;;;;;;;;;5027650;28;20017;-67
2022/09/23 02:24:15;;;;;;;7.93;2.93;;;;;;;;;;5029326;28;20033;-67
2022/09/23 02:26:48;;;;;;;6.63;3.17;;;;;;;;;;5031569;28;20345;-67
2022/09/23 02:29:13;;;;;;;8.15;2.95;;;;;;;;;;5032763;28;20028;-68
2022/09/23 02:31:44;;;;;;;5.50;3.00;;;;;;;;;;5027342;28;20025;-68
2022/09/23 02:34:09;;;;;;;;;;;;;;;;;;5039773;28;20267;-68
2022/09/23 02:36:39;;;;;;;8.00;3.20;;;;;;;;;;5028235;28;19905;-67
2022/09/23 02:39:07;;;;;;;13.77;4.32;;;;;;;;;;5039504;28;20025;-68
2022/09/23 02:41:44;;;;;;;13.77;3.70;;;;;;;;;;5031975;28;20025;-68
2022/09/23 02:44:11;;;;;;;9.43;3.47;;;;;;;;;;5030505;28;20021;-68
2022/09/23 02:46:36;;;;;;;11.32;3.90;;;;;;;;;;5030171;28;20018;-67
2022/09/23 02:49:04;;;;;;;7.13;2.65;;;;;;;;;;5027245;28;20024;-67
2022/09/23 02:51:36;;;;;;;9.10;3.17;;;;;;;;;;5030528;28;20079;-67
2022/09/23 02:54:02;;;;;;;9.63;3.40;;;;;;;;;;5026948;28;20485;-66
2022/09/23 02:56:27;;;;;;;11.32;3.90;;;;;;;;;;5036735;28;20095;-66
2022/09/23 02:58:53;;;;;;;7.80;3.92;;;;;;;;;;5026446;28;20021;-67
2022/09/23 03:01:31;;;;;;;10.77;3.03;;;;;;;;;;5033241;28;20029;-65
2022/09/23 03:04:16;;;;;;;8.65;2.58;;;;;;;;;;5028117;28;20100;-68
2022/09/23 03:06:41;;;;;;;6.05;2.60;;;;;;;;;;5022361;28;20497;-68
2022/09/23 03:09:14;;;;;;;6.07;2.40;;;;;;;;;;5030047;28;20053;-69
2022/09/23 03:11:44;;;;;;;4.18;2.42;;;;;;;;;;5026055;28;20030;-67
2022/09/23 03:14:24;;;;;;;4.00;2.25;;;;;;;;;;5038787;28;20491;-68
2022/09/23 03:16:52;;;;;;;7.07;2.50;;;;;;;;;;5026752;28;20026;-67
2022/09/23 03:19:32;;;;;;;4.22;2.35;;;;;;;;;;5031804;28;20094;-68
2022/09/23 03:22:08;;;;;;;3.65;2.00;;;;;;;;;;5025210;28;20382;-68
2022/09/23 03:24:35;;;;;;;9.00;2.28;;;;;;;;;;5028428;28;20042;-68
2022/09/23 03:27:02;;;;;;;4.57;2.78;;;;;;;;;;5026502;28;20021;-68
2022/09/23 03:29:27;;;;;;;6.20;2.30;;;;;;;;;;5029586;28;20018;-68
2022/09/23 03:31:53;;;;;;;5.57;2.20;;;;;;;;;;5028871;28;20033;-68
2022/09/23 03:34:21;;;;;;;3.97;2.10;;;;;;;;;;5029126;28;20021;-67
2022/09/23 03:36:51;;;;;;;3.92;2.10;;;;;;;;;;5027114;28;20045;-66
2022/09/23 03:39:27;;;;;;;5.45;2.15;;;;;;;;;;5030324;28;20108;-68
2022/09/23 03:41:54;;;;;;;6.28;2.60;;;;;;;;;;5028580;28;20482;-68
2022/09/23 03:44:20;;;;;;;14.07;2.47;;;;;;;;;;5023919;28;20017;-68
2022/09/23 03:46:48;;;;;;;9.45;4.07;;;;;;;;;;5029566;28;20100;-68
2022/09/23 03:49:26;;;;;;;14.10;3.05;;;;;;;;;;5027512;28;20516;-68
2022/09/23 03:51:51;;;;;;;5.70;1.98;;;;;;;;;;5027369;28;20021;-67
2022/09/23 03:54:18;;;;;;;8.65;2.60;;;;;;;;;;5027695;28;20029;-68
2022/09/23 03:56:43;;;;;;;4.25;2.30;;;;;;;;;;5028523;28;20017;-67
2022/09/23 03:59:08;;;;;;;4.38;2.25;;;;;;;;;;5024920;28;20021;-68
2022/09/23 04:01:34;;;;;;;4.53;2.53;;;;;;;;;;5023130;28;20712;-67
2022/09/23 04:03:59;;;;;;;5.37;2.47;;;;;;;;;;5031245;28;20273;-67
2022/09/23 04:06:24;;;;;;;4.80;2.83;;;;;;;;;;5037303;28;20357;-68
2022/09/23 04:08:49;;;;;;;10.13;2.63;;;;;;;;;;5040456;28;20013;-68
2022/09/23 04:11:14;;;;;;;7.33;2.70;;;;;;;;;;5028301;28;20517;-68
2022/09/23 04:13:40;;;;;;;8.55;2.50;;;;;;;;;;5030370;28;20264;-68
2022/09/23 04:16:05;;;;;;;5.20;2.33;;;;;;;;;;5033528;28;20100;-68
2022/09/23 04:18:30;;;;;;;5.75;3.00;;;;;;;;;;5032735;28;20039;-69
2022/09/23 04:21:01;;;;;;;5.13;3.23;;;;;;;;;;5031865;28;20026;-67
2022/09/23 04:23:27;;;;;;;11.38;3.28;;;;;;;;;;5197201;22;20314;-63
2022/09/23 04:25:52;;;;;;;8.23;3.03;;;;;;;;;;5034050;28;20033;-63
2022/09/23 04:28:17;;;;;;;6.35;2.50;;;;;;;;;;5050893;28;20070;-63
2022/09/23 04:30:44;;;;;;;6.13;2.50;;;;;;;;;;5058053;28;20399;-63
2022/09/23 04:33:10;;;;;;;6.10;2.28;;;;;;;;;;5051200;28;20020;-63
2022/09/23 04:35:37;;;;;;;9.68;2.50;;;;;;;;;;5047493;28;20593;-63
2022/09/23 04:38:02;;;;;;;8.98;2.78;;;;;;;;;;5053745;28;20107;-63
2022/09/23 04:40:28;;;;;;;12.88;3.08;;;;;;;;;;5054949;28;20556;-63
2022/09/23 04:42:53;;;;;;;6.85;2.83;;;;;;;;;;5052470;28;20021;-63
2022/09/23 04:45:18;;;;;;;4.75;2.50;;;;;;;;;;5050783;28;20392;-63
2022/09/23 04:47:43;;;;;;;9.17;2.80;;;;;;;;;;5054629;28;20067;-63
2022/09/23 04:50:08;;;;;;;6.20;2.92;;;;;;;;;;5044695;28;20876;-63
2022/09/23 04:52:34;;;;;;;9.52;2.70;;;;;;;;;;5048702;28;20131;-64
2022/09/23 04:54:59;;;;;;;6.95;2.80;;;;;;;;;;5050347;28;20024;-64
2022/09/23 04:57:25;;;;;;;10.75;3.10;;;;;;;;;;5050676;28;20093;-64
2022/09/23 04:59:50;;;;;;;8.73;3.55;;;;;;;;;;5042863;28;20022;-64
2022/09/23 05:02:15;;;;;;;8.40;3.00;;;;;;;;;;5043185;28;20039;-64
2022/09/23 05:04:40;;;;;;;6.78;3.35;;;;;;;;;;5047219;28;20435;-64
2022/09/23 05:07:06;;;;;;;6.00;2.90;;;;;;;;;;5036991;28;20024;-64
2022/09/23 05:09:31;;;;;;;7.75;3.60;;;;;;;;;;5049794;28;20298;-64
2022/09/23 05:11:56;;;;;;;8.20;3.78;;;;;;;;;;5049858;28;20469;-64
2022/09/23 05:14:21;;;;;;;6.45;2.60;;;;;;;;;;5047124;28;20017;-64
2022/09/23 05:16:46;;;;;;;5.20;3.37;;;;;;;;;;5048052;28;20527;-64
2022/09/23 05:19:12;;;;;;;10.90;3.37;;;;;;;;;;5052001;28;20275;-64
2022/09/23 05:21:38;;;;;;;5.93;3.72;;;;;;;;;;5053451;28;20778;-64
2022/09/23 05:24:03;;;;;;;10.48;4.47;;;;;;;;;;5048841;28;20458;-64
2022/09/23 05:26:30;;;;;;;14.88;3.50;;;;;;;;;;5051035;28;20040;-64
2022/09/23 05:28:55;;;;;;;8.13;3.80;;;;;;;;;;5048493;28;20484;-64
2022/09/23 05:31:22;;;;;;;10.07;3.28;;;;;;;;;;5056241;28;20021;-64
2022/09/23 05:33:50;;;;;;;11.50;3.38;;;;;;;;;;5045804;28;20053;-64
2022/09/23 05:36:19;;;;;;;10.50;3.30;;;;;;;;;;5045858;28;20025;-64
2022/09/23 05:38:44;;;;;;;9.05;3.70;;;;;;;;;;5028628;28;20044;-64
2022/09/23 05:41:11;;;;;;;12.57;4.75;;;;;;;;;;5057358;28;20127;-64
2022/09/23 05:43:36;;;;;;;9.50;3.70;;;;;;;;;;5047575;28;20024;-64
2022/09/23 05:46:08;;;;;;;6.97;4.00;;;;;;;;;;5046954;28;20052;-64
2022/09/23 05:48:33;;;;;;;9.38;4.47;;;;;;;;;;5046619;28;20021;-64
2022/09/23 05:50:59;;;;;;;11.57;3.80;;;;;;;;;;5050504;28;20020;-64
2022/09/23 05:53:25;;;;;;;9.27;4.10;;;;;;;;;;5046889;28;20025;-64
2022/09/23 05:55:50;;;;;;;8.18;4.18;;;;;;;;;;5041953;28;20079;-64
2022/09/23 05:58:15;;;;;;;9.88;3.83;;;;;;;;;;5055110;28;20104;-64
2022/09/23 06:00:41;;;;;;;5.88;3.58;;;;;;;;;;5044640;28;20093;-64
2022/09/23 06:03:13;;;;;;;13.40;3.90;;;;;;;;;;5047361;28;20033;-64
2022/09/23 06:05:39;;;;;;;8.85;3.83;;;;;;;;;;5042558;28;20029;-64
2022/09/23 06:08:04;;;;;;;10.10;3.20;;;;;;;;;;5047334;28;20481;-64
2022/09/23 06:10:29;;;;;;;10.45;3.85;;;;;;;;;;5047929;28;20021;-64
2022/09/23 06:12:54;;;;;;;6.72;3.33;;;;;;;;;;5046584;28;20355;-64
2022/09/23 06:15:20;;;;;;;15.40;3.33;;;;;;;;;;5048947;28;20503;-64
2022/09/23 06:17:47;;;;;;;9.40;3.50;;;;;;;;;;5047792;28;20286;-64
2022/09/23 06:20:12;;;;;;;9.00;2.95;;;;;;;;;;5047654;28;20037;-64
2022/09/23 06:22:38;;;;;;;9.10;3.63;;;;;;;;;;5050679;28;20028;-64
2022/09/23 06:25:03;;;;;;;8.38;3.30;;;;;;;;;;5049239;28;20029;-64
2022/09/23 06:27:28;;;;;;;6.70;2.97;;;;;;;;;;5050705;28;20024;-64
2022/09/23 06:29:53;;;;;;;5.27;2.83;;;;;;;;;;5044260;28;20377;-64
2022/09/23 06:32:19;;;;;;;9.57;3.53;;;;;;;;;;5048739;28;20298;-64
2022/09/23 06:34:44;;;;;;;12.40;4.55;;;;;;;;;;5030658;28;20275;-64
2022/09/23 06:37:10;;;;;;;14.57;4.40;;;;;;;;;;5048680;28;20039;-64
2022/09/23 06:39:35;;;;;;;9.05;4.75;;;;;;;;;;5049817;28;20283;-64
2022/09/23 06:42:00;;;;;;;9.77;5.50;;;;;;;;;;5047242;28;20025;-65
2022/09/23 06:44:27;;;;;;;15.03;5.13;;;;;;;;;;5055300;28;20017;-64
2022/09/23 06:46:52;;;;;;;12.30;5.07;;;;;;;;;;5051100;28;20278;-65
2022/09/23 06:49:19;;;;;;;8.98;4.72;;;;;;;;;;5042485;28;20424;-64
2022/09/23 06:51:44;;;;;;;12.45;4.50;;;;;;;;;;5041370;28;20013;-65
2022/09/23 06:54:09;;;;;;;12.68;5.03;;;;;;;;;;5060341;28;20017;-64
2022/09/23 06:56:35;;;;;;;8.15;4.13;;;;;;;;;;5044894;28;20075;-64
2022/09/23 06:59:00;;;;;;;10.60;3.40;;;;;;;;;;5042776;28;20032;-64
2022/09/23 07:01:25;;;;;;;5.28;3.08;;;;;;;;;;5022945;28;20345;-64
2022/09/23 07:03:50;;;;;;;8.30;3.25;;;;;;;;;;5047976;28;20017;-64
2022/09/23 07:06:16;;;;;;;6.47;2.97;;;;;;;;;;5042461;28;20031;-64
2022/09/23 07:08:43;;;;;;;5.30;2.85;;;;;;;;;;5046334;28;20416;-65
2022/09/23 07:11:12;;;;;;;9.30;3.67;;;;;;;;;;5043791;28;20112;-65
2022/09/23 07:13:38;;;;;;;5.32;2.47;;;;;;;;;;5046012;28;20366;-65
2022/09/23 07:16:04;;;;;;;5.88;2.70;;;;;;;;;;5042977;28;20032;-65
2022/09/23 07:18:30;;;;;;;11.77;2.60;;;;;;;;;;5046285;28;20020;-65
2022/09/23 07:20:56;;;;;;;10.02;2.88;;;;;;;;;;5047320;28;20104;-65
2022/09/23 07:23:22;;;;;;;6.72;2.65;;;;;;;;;;5050091;28;20021;-65
2022/09/23 07:25:49;;;;;;;5.15;2.20;;;;;;;;;;5049800;28;20067;-65
2022/09/23 07:28:15;;;;;;;5.57;2.30;;;;;;;;;;5046386;28;20048;-65
2022/09/23 07:30:40;;;;;;;7.00;2.00;;;;;;;;;;5046224;28;20048;-65
2022/09/23 07:33:06;;;;;;;5.53;2.08;;;;;;;;;;5047097;28;20036;-65
2022/09/23 07:35:32;;;;;;;5.33;1.90;;;;;;;;;;5045023;28;20089;-65
2022/09/23 07:37:57;;;;;;;7.60;2.20;;;;;;;;;;5051280;28;20815;-65
2022/09/23 07:40:22;;;;;;;3.58;2.22;;;;;;;;;;5050059;28;20143;-65
2022/09/23 07:42:48;;;;;;;4.53;1.87;;;;;;;;;;5053366;28;20104;-65
2022/09/23 07:45:13;;;;;;;7.90;2.03;;;;;;;;;;5049815;28;20051;-65
2022/09/23 07:47:39;;;;;;;2.17;1.80;;;;;;;;;;5046844;28;20024;-65
2022/09/23 07:50:05;;;;;;;3.40;1.60;;;;;;;;;;5040086;28;20659;-65
2022/09/23 07:52:30;;;;;;;2.97;1.48;;;;;;;;;;5050670;28;20020;-65
2022/09/23 07:54:55;;;;;;;3.50;1.67;;;;;;;;;;5045764;28;20609;-65
2022/09/23 07:57:20;;;;;;;3.30;1.60;;;;;;;;;;5056005;28;20028;-65
2022/09/23 07:59:46;;;;;;;4.07;1.53;;;;;;;;;;5047758;28;20282;-65
2022/09/23 08:02:13;;;;;;;4.63;1.80;;;;;;;;;;5049857;28;20029;-64
2022/09/23 08:04:38;;;;;;;3.40;1.85;;;;;;;;;;5047375;28;20029;-64
2022/09/23 08:07:04;;;;;;;3.23;1.50;;;;;;;;;;5050997;28;20044;-64
2022/09/23 08:09:31;;;;;;;5.43;1.70;;;;;;;;;;5048245;28;20271;-64
2022/09/23 08:11:56;;;;;;;3.03;1.40;;;;;;;;;;5045009;28;20441;-64
2022/09/23 08:14:21;;;;;;;2.28;1.45;;;;;;;;;;5048308;28;20021;-65
2022/09/23 08:16:47;;;;;;;5.27;1.57;;;;;;;;;;5045715;28;20269;-65
2022/09/23 08:19:13;;;;;;;3.45;1.60;;;;;;;;;;5049487;28;20781;-64
2022/09/23 08:21:39;;;;;;;2.60;1.48;;;;;;;;;;5048327;28;20036;-64
2022/09/23 08:24:05;;;;;;;3.80;1.67;;;;;;;;;;5051185;28;20618;-64
2022/09/23 08:26:33;;;;;;;6.53;1.42;;;;;;;;;;5052377;28;20036;-64
2022/09/23 08:28:58;;;;;;;2.60;1.38;;;;;;;;;;5053698;28;20275;-64
2022/09/23 08:31:23;;;;;;;2.65;1.45;;;;;;;;;;5048705;28;20020;-64
2022/09/23 08:33:55;;;;;;;3.00;1.42;;;;;;;;;;5045767;28;20025;-64
2022/09/23 08:36:21;;;;;;;8.82;1.73;;;;;;;;;;5044349;28;20659;-64
2022/09/23 08:38:46;;;;;;;4.25;1.50;;;;;;;;;;5051090;28;20033;-64
2022/09/23 08:41:32;;;;;;;2.70;1.80;;;;;;;;;;5052170;28;20536;-64
2022/09/23 08:44:00;;;;;;;9.88;2.03;;;;;;;;;;5026417;28;20048;-64
2022/09/23 08:46:30;;;;;;;4.93;1.70;;;;;;;;;;5047674;28;20564;-64
2022/09/23 08:48:58;;;;;;;3.22;2.00;;;;;;;;;;5049466;28;20020;-64
2022/09/23 08:51:34;;;;;;;7.18;1.52;;;;;;;;;;5047881;28;20018;-64
2022/09/23 08:53:59;;;;;;;3.60;1.40;;;;;;;;;;5045993;28;20017;-64
2022/09/23 08:56:24;;;;;;;5.10;1.50;;;;;;;;;;5049427;28;20023;-64
2022/09/23 08:59:02;;;;;;;3.13;1.70;;;;;;;;;;5048233;28;20036;-64
2022/09/23 09:01:28;;;;;;;3.78;1.58;;;;;;;;;;5052795;28;20029;-64
2022/09/23 09:03:54;;;;;;;5.87;1.80;;;;;;;;;;5049436;28;20022;-64
2022/09/23 09:06:39;;;;;;;2.78;1.25;;;;;;;;;;5047232;28;20275;-64
2022/09/23 09:09:06;;;;;;;2.67;1.50;;;;;;;;;;5052249;28;20021;-64
2022/09/23 09:11:41;;;;;;;2.72;1.30;;;;;;;;;;5054506;28;20009;-64
2022/09/23 09:14:45;;;;;;;6.95;1.60;;;;;;;;;;5051288;28;20029;-64
2022/09/23 09:17:20;;;;;;;5.35;1.50;;;;;;;;;;4989399;28;20068;-64
2022/09/23 09:19:46;;;;;;;3.30;1.42;;;;;;;;;;4988741;28;20069;-64
2022/09/23 09:22:14;;;;;;;6.45;1.85;;;;;;;;;;5027691;28;20072;-64
2022/09/23 09:24:42;;;;;;;2.20;1.30;;;;;;;;;;5051320;28;20020;-64
2022/09/23 09:27:11;;;;;;;2.63;1.40;;;;;;;;;;5047867;28;20528;-64
2022/09/23 09:29:38;;;;;;;3.78;1.55;;;;;;;;;;5047076;28;20024;-64
2022/09/23 09:32:12;;;;;;;5.05;1.38;;;;;;;;;;5049044;28;20029;-64
2022/09/23 09:34:42;;;;;;;4.88;1.45;;;;;;;;;;5050695;28;20071;-64
2022/09/23 09:37:11;;;;;;;8.35;2.13;;;;;;;;;;5048442;28;20020;-64
2022/09/23 09:39:36;;;;;;;4.05;2.35;;;;;;;;;;5050768;28;20146;-64
2022/09/23 09:42:02;;;;;;;4.28;1.50;;;;;;;;;;5048664;28;20484;-64
2022/09/23 09:44:34;;;;;;;16.42;5.60;;;;;;;;;;5049045;28;20016;-64
2022/09/23 09:47:17;;;;;;;5.47;2.10;;;;;;;;;;5049763;28;20033;-64
2022/09/23 09:49:52;;;;;;;2.55;1.70;;;;;;;;;;5046203;28;20563;-64
2022/09/23 09:52:23;;;;;;;4.20;2.00;;;;;;;;;;5063372;28;20469;-64
2022/09/23 09:54:49;;;;;;;3.33;1.50;;;;;;;;;;5034574;28;20084;-64
2022/09/23 09:57:17;;;;;;;4.53;1.80;;;;;;;;;;5049632;28;20025;-64
2022/09/23 09:59:43;;;;;;;4.47;1.40;;;;;;;;;;5046945;28;20066;-64
2022/09/23 10:02:28;;;;;;;2.90;1.33;;;;;;;;;;5050354;28;20012;-64
2022/09/23 10:04:58;;;;;;;4.22;1.33;;;;;;;;;;5047463;28;20500;-65
2022/09/23 10:07:26;;;;;;;3.55;1.02;;;;;;;;;;5047409;28;20020;-65
2022/09/23 10:09:51;;;;;;;7.25;2.15;;;;;;;;;;5050300;28;20028;-65
2022/09/23 10:12:20;;;;;;;3.17;1.80;;;;;;;;;;5051552;28;20021;-65
2022/09/23 10:14:50;;;;;;;3.40;1.48;;;;;;;;;;5050386;28;20287;-65
2022/09/23 10:17:23;;;;;;;2.65;1.38;;;;;;;;;;5049602;28;20547;-65
2022/09/23 10:19:49;;;;;;;5.97;1.08;;;;;;;;;;5048538;28;20021;-65
2022/09/23 10:22:20;;;;;;;4.97;1.60;;;;;;;;;;5081546;22;20398;-70
2022/09/23 10:24:47;;;;;;;7.18;1.50;;;;;;;;;;5025583;28;20044;-69
2022/09/23 10:27:12;;;;;;;6.15;1.60;;;;;;;;;;5030297;28;20641;-68
2022/09/23 10:29:46;;;;;;;3.57;1.50;;;;;;;;;;5027949;28;20029;-68
2022/09/23 10:32:25;;;;;;;6.13;1.67;;;;;;;;;;5029166;28;20453;-68
2022/09/23 10:34:52;;;;;;;3.25;1.40;;;;;;;;;;5029407;28;20124;-68
2022/09/23 10:37:26;;;;;;;1.83;1.30;;;;;;;;;;5029858;28;20462;-68
2022/09/23 10:48:15;;;;;;;4.45;1.80;;;;;;;;;;5027335;28;20668;-68
2022/09/23 10:50:40;;;;;;;2.70;1.13;;;;;;;;;;5028539;28;20021;-68
2022/09/23 10:53:06;;;;;;;3.05;1.23;;;;;;;;;;5032123;28;20074;-68
2022/09/23 10:55:56;;;;;;;2.35;1.30;;;;;;;;;;5031293;28;20120;-68
2022/09/23 10:58:24;;;;;;;4.18;1.55;;;;;;;;;;5027148;28;20025;-67
2022/09/23 11:00:52;;;;;;;2.15;1.20;;;;;;;;;;5024235;28;20055;-67
2022/09/23 11:03:35;;;;;;;1.75;1.23;;;;;;;;;;5027106;28;20025;-68
2022/09/23 11:06:01;;;;;;;5.68;1.17;;;;;;;;;;5029156;28;20473;-68
2022/09/23 11:08:36;;;;;;;7.60;1.40;;;;;;;;;;5026792;28;20029;-68
2022/09/23 11:11:07;;;;;;;4.85;1.60;;;;;;;;;;5026891;28;20014;-68
2022/09/23 11:13:51;;;;;;;7.28;1.40;;;;;;;;;;5029635;28;20025;-68
2022/09/23 11:16:26;;;;;;;3.47;2.00;;;;;;;;;;5026399;28;20021;-68
2022/09/23 11:19:02;;;;;;;4.03;1.38;;;;;;;;;;5029658;28;20025;-68
2022/09/23 11:21:39;;;;;;;3.45;1.10;;;;;;;;;;5027776;28;20079;-68
2022/09/23 11:24:23;;;;;;;9.23;1.40;;;;;;;;;;5028948;28;20036;-69
2022/09/23 11:26:55;;;;;;;3.83;1.20;;;;;;;;;;5028039;28;20362;-68
2022/09/23 11:29:44;;;;;;;2.70;1.40;;;;;;;;;;5028610;28;20128;-68
2022/09/23 11:32:13;;;;;;;5.00;1.20;;;;;;;;;;5015632;28;20034;-68
2022/09/23 11:34:38;;;;;;;2.40;1.20;;;;;;;;;;5035394;28;20373;-69
2022/09/23 11:37:06;;;;;;;7.95;1.13;;;;;;;;;;5026179;28;20021;-68
2022/09/23 11:39:57;;;;;;;1.73;1.27;;;;;;;;;;5032077;28;20061;-67
2022/09/23 11:42:34;;;;;;;2.92;1.10;;;;;;;;;;5021835;28;20048;-68
2022/09/23 11:45:28;;;;;;;4.07;1.40;;;;;;;;;;5030998;28;20381;-68
2022/09/23 11:47:57;;;;;;;3.67;1.20;;;;;;;;;;5016265;28;20069;-68
2022/09/23 11:50:35;;;;;;;4.38;1.80;;;;;;;;;;5026380;28;20024;-68
2022/09/23 11:53:06;;;;;;;6.13;1.33;;;;;;;;;;5027185;28;20033;-69
2022/09/23 11:55:42;;;;;;;2.72;1.30;;;;;;;;;;5027435;28;20055;-68
2022/09/23 11:58:11;;;;;;;3.58;1.20;;;;;;;;;;5027081;28;20025;-67
2022/09/23 12:00:41;;;;;;;5.85;1.63;;;;;;;;;;5025310;28;20029;-68
2022/09/23 12:03:17;;;;;;;2.45;1.35;;;;;;;;;;5027824;28;20021;-68
2022/09/23 12:05:47;;;;;;;4.20;1.48;;;;;;;;;;5026267;28;20048;-68
2022/09/23 12:08:27;;;;;;;4.90;1.35;;;;;;;;;;5025688;28;20018;-68
2022/09/23 12:10:52;;;;;;;;;;;;;;;;;;5027179;28;20021;-68
2022/09/23 12:13:21;;;;;;;5.50;1.50;;;;;;;;;;5039421;28;20441;-69
2022/09/23 12:16:03;;;;;;;3.60;1.53;;;;;;;;;;5030074;28;20481;-68
2022/09/23 12:18:52;;;;;;;7.10;1.10;;;;;;;;;;5024114;28;20029;-68
2022/09/23 12:21:24;;;;;;;2.78;0.90;;;;;;;;;;5010539;28;20041;-68
2022/09/23 12:24:00;;;;;;;1.98;1.20;;;;;;;;;;5027099;28;20087;-68
2022/09/23 12:26:25;;;;;;;7.55;1.48;;;;;;;;;;5027629;28;20064;-69
2022/09/23 12:28:53;;;;;;;7.13;1.17;;;;;;;;;;5032771;28;20096;-68
2022/09/23 12:31:20;;;;;;;3.28;1.52;;;;;;;;;;5028555;28;20021;-70
2022/09/23 12:33:52;;;;;;;5.00;1.20;;;;;;;;;;5030498;28;20029;-70
2022/09/23 12:36:25;;;;;;;4.03;1.35;;;;;;;;;;5033414;28;20021;-69
2022/09/23 12:38:52;;;;;;;11.95;1.23;;;;;;;;;;5030076;28;20516;-70
2022/09/23 12:41:34;;;;;;;2.67;1.00;;;;;;;;;;5031728;28;20033;-69
2022/09/23 12:44:13;;;;;;;2.25;1.13;;;;;;;;;;5034357;28;20091;-68
2022/09/23 12:46:38;;;;;;;2.85;1.10;;;;;;;;;;5030736;28;20103;-69
2022/09/23 12:49:05;;;;;;;6.05;1.90;;;;;;;;;;5027508;28;20478;-69
2022/09/23 12:51:34;;;;;;;3.13;1.20;;;;;;;;;;5031274;28;20026;-66
2022/09/23 12:54:02;;;;;;;4.05;1.30;;;;;;;;;;5033291;28;20513;-70
2022/09/23 12:56:36;;;;;;;1.88;1.23;;;;;;;;;;5037345;28;20036;-68
2022/09/23 12:59:20;;;;;;;2.63;1.20;;;;;;;;;;5035461;28;20543;-68
2022/09/23 13:01:45;;;;;;;3.30;1.00;;;;;;;;;;5039362;28;20035;-69
2022/09/23 13:07:15;;;;;;;2.13;1.17;;;;;;;;;;5037346;28;20051;-67
2022/09/23 13:09:42;;;;;;;3.85;1.08;;;;;;;;;;5029632;28;20559;-69
2022/09/23 13:12:14;;;;;;;2.05;1.05;;;;;;;;;;5033427;28;20358;-69
2022/09/23 13:14:43;;;;;;;3.92;1.27;;;;;;;;;;5033106;28;20101;-68
2022/09/23 13:17:20;;;;;;;3.00;1.30;;;;;;;;;;5035475;28;20096;-69
2022/09/23 13:19:56;;;;;;;2.67;1.17;;;;;;;;;;5027827;28;20500;-70
2022/09/23 13:22:41;;;;;;;4.55;1.38;;;;;;;;;;5026461;28;20100;-69
2022/09/23 13:25:16;;;;;;;4.10;1.50;;;;;;;;;;5017791;28;20057;-67
2022/09/23 13:27:42;;;;;;;2.80;1.00;;;;;;;;;;5045572;28;20100;-69
2022/09/23 13:30:13;;;;;;;3.17;1.10;;;;;;;;;;5030610;28;20021;-69
2022/09/23 13:32:43;;;;;;;5.68;1.30;;;;;;;;;;5031712;28;20024;-70
2022/09/23 13:35:08;;;;;;;;;;;;;;;;;;5029465;28;20629;-70
2022/09/23 13:37:36;;;;;;;3.33;1.77;;;;;;;;;;5041908;28;20324;-68
2022/09/23 13:40:18;;;;;;;3.83;1.40;;;;;;;;;;5030716;28;20022;-70
2022/09/23 13:42:46;;;;;;;2.20;1.20;;;;;;;;;;5032963;28;20026;-66
2022/09/23 13:45:14;;;;;;;4.80;1.55;;;;;;;;;;5030671;28;20017;-70
2022/09/23 13:47:40;;;;;;;4.78;1.30;;;;;;;;;;5036929;28;20028;-70
2022/09/23 13:50:11;;;;;;;6.05;1.30;;;;;;;;;;5029730;28;20022;-69
2022/09/23 13:52:37;;;;;;;7.18;2.03;;;;;;;;;;5033825;28;20071;-70
2022/09/23 13:55:02;;;;;;;4.10;0.90;;;;;;;;;;5030262;28;20025;-67
2022/09/23 13:57:29;;;;;;;5.20;1.40;;;;;;;;;;5027563;28;20025;-70
2022/09/23 14:00:14;;;;;;;3.92;1.50;;;;;;;;;;5027451;28;20033;-69
2022/09/23 14:02:43;;;;;;;7.82;1.50;;;;;;;;;;5040707;28;20061;-70
2022/09/23 14:05:12;;;;;;;3.65;1.45;;;;;;;;;;5029932;28;20025;-66
2022/09/23 14:07:37;;;;;;;6.85;1.90;;;;;;;;;;5032185;28;20029;-69
2022/09/23 14:10:04;;;;;;;6.88;1.88;;;;;;;;;;5029319;28;20120;-68
2022/09/23 14:12:30;;;;;;;10.15;1.67;;;;;;;;;;5034164;28;20739;-70
2022/09/23 14:14:56;;;;;;;4.45;1.63;;;;;;;;;;5028557;28;20105;-66
2022/09/23 14:17:24;;;;;;;4.75;1.98;;;;;;;;;;5027113;28;20394;-66
2022/09/23 14:19:49;;;;;;;4.28;1.67;;;;;;;;;;5028531;28;20021;-70
2022/09/23 14:22:22;;;;;;;10.48;1.67;;;;;;;;;;5030515;28;20343;-70
2022/09/23 14:24:47;;;;;;;13.70;1.77;;;;;;;;;;5031221;28;20047;-70
2022/09/23 14:27:14;;;;;;;4.15;1.83;;;;;;;;;;5028561;28;20494;-68
2022/09/23 14:29:41;;;;;;;6.03;1.77;;;;;;;;;;5028023;28;20500;-70
2022/09/23 14:32:10;;;;;;;10.65;3.17;;;;;;;;;;5028711;28;20025;-69
2022/09/23 14:34:45;;;;;;;8.45;2.50;;;;;;;;;;5031687;28;20468;-70
2022/09/23 14:40:15;;;;;;;14.40;1.75;;;;;;;;;;5030027;28;20389;-70
2022/09/23 14:42:42;;;;;;;6.95;1.50;;;;;;;;;;5027069;28;20022;-70
2022/09/23 14:45:12;;;;;;;7.10;1.77;;;;;;;;;;5024981;28;20462;-66
2022/09/23 14:47:41;;;;;;;6.03;1.80;;;;;;;;;;5029826;28;20056;-70
2022/09/23 14:52:57;;;;;;;4.50;1.95;;;;;;;;;;5028963;28;20072;-70
2022/09/23 14:55:26;;;;;;;3.63;2.10;;;;;;;;;;5028594;28;20037;-68
2022/09/23 14:58:00;;;;;;;10.23;2.67;;;;;;;;;;5023019;28;20272;-70
2022/09/23 15:00:25;;;;;;;8.85;2.78;;;;;;;;;;5028406;28;20104;-70
2022/09/23 15:02:56;;;;;;;6.03;2.33;;;;;;;;;;5035670;28;20108;-66
2022/09/23 15:05:28;;;;;;;7.85;2.33;;;;;;;;;;5025921;28;20017;-70
2022/09/23 15:07:54;;;;;;;10.77;1.98;;;;;;;;;;5029103;28;20025;-70
2022/09/23 15:10:22;;;;;;;4.30;1.60;;;;;;;;;;5028478;28;20063;-70
2022/09/23 15:12:49;;;;;;;7.05;2.25;;;;;;;;;;5029600;28;20026;-68